»·PEaware :: AAY2460 KSMF-KLAS

AAY2460 :: KSMF-KLAS

FLIGHT INFORMATION

Flight Status: Arrived
Operator:
Allegiant Air
More flights by this operator :: More flights under this callsign
Pilot: Max W. (2591)
Aircraft: AIRBUS A319
(A319)
More flights by this aircraft type
Origin: KSMF Sacramento Intl
United States
Destination: KLAS McCarran Intl
United States
More flights between these airports :: More routes between these airports
Route: RVRCT2 KENNO TACUS SUNST4
File this flight plan on PilotEdge
Remarks:
Altitude:
(Current/Filed)
35,000ft
Speed:
(Current/Filed)
430kts
Departed: 25-Oct-19 04:00 PM
Arrived: 25-Oct-19 04:59 PM
Distance/Time
Traveled:
344nm/0:58
Distance/Time
To Go:
Arrived

Flight Plot

Page will automatically refresh every two minutes.

Flight plan parsing failed; only flown route is shown


Map Options




Map Legend


Flown Route
Filed Route
Departure Airport
Arrival Airport
Navaid (VOR, NDB)
Fix

Horizontal Profiles

Position Reports

Time Latitude Longitude Heading Altitude Ground
Speed
25-Oct-19 15:03 38.695168 -121.594512 24 29ft 0kts
25-Oct-19 15:04 38.695168 -121.594512 24 29ft 0kts
25-Oct-19 15:05 38.695168 -121.594512 24 29ft 0kts
25-Oct-19 15:06 38.695168 -121.594512 24 29ft 0kts
25-Oct-19 15:07 38.695168 -121.594512 24 29ft 0kts
25-Oct-19 15:08 38.695168 -121.594512 24 29ft 0kts
25-Oct-19 15:09 38.695168 -121.594512 24 29ft 0kts
25-Oct-19 15:10 38.695168 -121.594512 24 29ft 0kts
25-Oct-19 15:11 38.695168 -121.594512 24 29ft 0kts
25-Oct-19 15:12 38.695168 -121.594512 24 29ft 0kts
25-Oct-19 15:13 38.695168 -121.594512 24 29ft 0kts
25-Oct-19 15:14 38.695168 -121.594512 24 29ft 0kts
25-Oct-19 15:15 38.695168 -121.594512 24 29ft 0kts
25-Oct-19 15:16 38.695168 -121.594512 24 29ft 0kts
25-Oct-19 15:17 38.695168 -121.594512 24 29ft 0kts
25-Oct-19 15:18 38.695168 -121.594512 24 29ft 0kts
25-Oct-19 15:19 38.695168 -121.594512 24 29ft 0kts
25-Oct-19 15:20 38.695168 -121.594512 24 29ft 0kts
25-Oct-19 15:21 38.695168 -121.594512 24 29ft 0kts
25-Oct-19 15:22 38.695168 -121.594512 24 29ft 0kts
25-Oct-19 15:23 38.695168 -121.594512 24 29ft 0kts
25-Oct-19 15:24 38.695168 -121.594512 24 29ft 0kts
25-Oct-19 15:25 38.695168 -121.594512 24 29ft 0kts
25-Oct-19 15:26 38.695168 -121.594512 24 29ft 0kts
25-Oct-19 15:27 38.695168 -121.594512 24 29ft 0kts
25-Oct-19 15:28 38.695168 -121.594512 24 29ft 0kts
25-Oct-19 15:29 38.695168 -121.594512 24 29ft 0kts
25-Oct-19 15:30 38.695168 -121.594512 24 29ft 0kts
25-Oct-19 15:31 38.695168 -121.594512 24 29ft 0kts
25-Oct-19 15:32 38.695168 -121.594512 24 29ft 0kts
25-Oct-19 15:33 38.695168 -121.594512 24 29ft 0kts
25-Oct-19 15:34 38.695168 -121.594512 24 29ft 0kts
25-Oct-19 15:35 38.695168 -121.594512 24 29ft 0kts
25-Oct-19 15:36 38.695154 -121.594519 23 29ft 1kts
25-Oct-19 15:37 38.694655 -121.594526 305 29ft 2kts
25-Oct-19 15:39 38.694598 -121.594239 268 29ft 0kts
25-Oct-19 15:40 38.694598 -121.594240 268 29ft 0kts
25-Oct-19 15:41 38.694598 -121.594240 268 29ft 0kts
25-Oct-19 15:42 38.694598 -121.594240 268 29ft 0kts
25-Oct-19 15:43 38.694598 -121.594240 268 29ft 0kts
25-Oct-19 15:44 38.694621 -121.595437 270 29ft 0kts
25-Oct-19 15:45 38.694625 -121.595692 270 29ft 0kts
25-Oct-19 15:46 38.694625 -121.595692 270 29ft 0kts
25-Oct-19 15:47 38.694625 -121.595692 270 29ft 0kts
25-Oct-19 15:48 38.694625 -121.595692 270 29ft 0kts
25-Oct-19 15:49 38.694625 -121.595692 270 29ft 0kts
25-Oct-19 15:50 38.694625 -121.595692 270 29ft 0kts
25-Oct-19 15:51 38.694625 -121.595692 270 29ft 0kts
25-Oct-19 15:52 38.694626 -121.595874 269 29ft 5kts
25-Oct-19 15:53 38.696752 -121.598603 0 29ft 20kts
25-Oct-19 15:54 38.697720 -121.594062 88 29ft 17kts
25-Oct-19 15:55 38.696937 -121.588372 92 29ft 16kts
25-Oct-19 15:56 38.696648 -121.582928 156 29ft 9kts
25-Oct-19 15:57 38.692250 -121.582931 180 29ft 18kts
25-Oct-19 15:57 38.687915 -121.583017 181 29ft 19kts
25-Oct-19 15:59 38.683845 -121.580509 29 29ft 9kts
25-Oct-19 16:00 38.707109 -121.580144 0 229ft 176kts
25-Oct-19 16:00 38.724155 -121.549502 104 2242ft 178kts
25-Oct-19 16:02 38.712180 -121.460695 97 4256ft 263kts
25-Oct-19 16:03 38.702189 -121.365074 96 7373ft 286kts
25-Oct-19 16:03 38.686923 -121.280802 105 9958ft 299kts
25-Oct-19 16:04 38.660996 -121.167514 106 11394ft 368kts
25-Oct-19 16:06 38.626103 -121.015929 107 14663ft 387kts
25-Oct-19 16:06 38.600352 -120.904858 107 16893ft 394kts
25-Oct-19 16:07 38.568657 -120.768562 107 19101ft 407kts
25-Oct-19 16:08 38.535607 -120.627378 108 21063ft 420kts
25-Oct-19 16:09 38.501421 -120.482202 108 22802ft 433kts
25-Oct-19 16:10 38.466708 -120.335726 109 24314ft 445kts
25-Oct-19 16:11 38.428200 -120.184067 114 25692ft 455kts
25-Oct-19 16:12 38.373635 -120.036471 118 26934ft 464kts
25-Oct-19 16:13 38.317395 -119.887963 118 28409ft 465kts
25-Oct-19 16:14 38.260719 -119.739042 118 29435ft 473kts
25-Oct-19 16:15 38.202855 -119.587669 117 30489ft 476kts
25-Oct-19 16:16 38.144768 -119.436459 117 31561ft 476kts
25-Oct-19 16:17 38.088509 -119.290539 118 32471ft 476kts
25-Oct-19 16:18 38.030070 -119.139654 118 33346ft 476kts
25-Oct-19 16:19 37.971478 -118.989447 117 34115ft 476kts
25-Oct-19 16:20 37.912801 -118.839586 117 34820ft 475kts
25-Oct-19 16:21 37.856415 -118.697178 116 35373ft 475kts
25-Oct-19 16:22 37.797483 -118.548431 116 35388ft 474kts
25-Oct-19 16:23 37.738301 -118.399412 116 35351ft 474kts
25-Oct-19 16:24 37.681909 -118.257776 117 35283ft 474kts
25-Oct-19 16:25 37.622519 -118.109382 117 35257ft 474kts
25-Oct-19 16:26 37.562910 -117.961352 117 35254ft 474kts
25-Oct-19 16:27 37.503040 -117.813371 117 35254ft 474kts
25-Oct-19 16:28 37.442967 -117.665569 117 35257ft 474kts
25-Oct-19 16:29 37.382616 -117.517735 117 35260ft 474kts
25-Oct-19 16:30 37.322209 -117.370417 117 35300ft 474kts
25-Oct-19 16:31 37.258415 -117.234231 124 35335ft 473kts
25-Oct-19 16:32 37.186870 -117.095629 123 35342ft 473kts
25-Oct-19 16:33 37.113227 -116.958757 129 35343ft 474kts
25-Oct-19 16:34 37.018490 -116.846162 145 35338ft 468kts
25-Oct-19 16:35 36.912015 -116.757175 146 31699ft 462kts
25-Oct-19 16:36 36.809777 -116.669885 142 28665ft 467kts
25-Oct-19 16:37 36.714725 -116.562585 137 26304ft 455kts
25-Oct-19 16:38 36.624359 -116.456778 137 24384ft 438kts
25-Oct-19 16:39 36.537000 -116.354792 137 22518ft 424kts
25-Oct-19 16:40 36.455883 -116.258781 134 20729ft 412kts
25-Oct-19 16:41 36.381097 -116.154062 132 18946ft 398kts
25-Oct-19 16:42 36.311805 -116.056797 132 17808ft 347kts
25-Oct-19 16:43 36.250040 -115.970338 132 16776ft 324kts
25-Oct-19 16:44 36.195747 -115.886068 116 16215ft 307kts
25-Oct-19 16:45 36.163993 -115.788146 111 15898ft 307kts
25-Oct-19 16:46 36.132500 -115.690140 111 14594ft 305kts
25-Oct-19 16:47 36.101153 -115.593050 111 13335ft 301kts
25-Oct-19 16:48 36.070360 -115.497941 111 12085ft 287kts
25-Oct-19 16:49 36.040812 -115.406969 111 11188ft 272kts
25-Oct-19 16:50 36.026672 -115.321700 94 10669ft 267kts
25-Oct-19 16:51 36.020158 -115.230568 95 9554ft 264kts
25-Oct-19 16:52 36.030884 -115.148359 43 8480ft 244kts
25-Oct-19 16:53 36.079668 -115.092686 41 6687ft 233kts
25-Oct-19 16:54 36.128700 -115.043544 10 5087ft 226kts
25-Oct-19 16:55 36.163653 -115.088752 285 4250ft 175kts
25-Oct-19 16:56 36.141367 -115.127716 206 3264ft 155kts
25-Oct-19 16:57 36.102351 -115.151320 206 2300ft 156kts
25-Oct-19 16:58 36.082803 -115.160748 92 2120ft 0kts
25-Oct-19 16:59 36.085045 -115.157815 95 2120ft 12kts

Navigation Log

Ident Type
Flight plan parsing failed, navigation log unavailable